createdAt,value
2022-11-27T00:01:43.529Z,4.20
2022-11-27T00:04:13.365Z,4.20
2022-11-27T00:06:43.259Z,4.20
2022-11-27T00:09:16.043Z,4.20
2022-11-27T00:11:45.525Z,4.20
2022-11-27T00:14:16.111Z,4.30
2022-11-27T00:16:45.658Z,4.30
2022-11-27T00:19:14.582Z,4.30
2022-11-27T00:21:43.347Z,4.30
2022-11-27T00:24:13.562Z,4.20
2022-11-27T00:26:42.605Z,4.20
2022-11-27T00:29:11.618Z,4.20
2022-11-27T00:31:40.583Z,4.20
2022-11-27T00:34:11.134Z,4.20
2022-11-27T00:36:43.986Z,4.20
2022-11-27T00:39:17.229Z,4.20
2022-11-27T00:41:46.820Z,4.10
2022-11-27T00:44:15.904Z,4.20
2022-11-27T00:46:44.766Z,4.30
2022-11-27T00:49:16.409Z,4.20
2022-11-27T00:51:45.326Z,4.30
2022-11-27T00:54:14.028Z,4.40
2022-11-27T00:56:44.890Z,4.30
2022-11-27T00:59:13.675Z,4.20
2022-11-27T01:01:44.652Z,4.30
2022-11-27T01:04:15.886Z,4.30
2022-11-27T01:06:45.777Z,4.30
2022-11-27T01:09:16.072Z,4.30
2022-11-27T01:11:46.328Z,4.50
2022-11-27T01:14:17.213Z,4.30
2022-11-27T01:16:46.442Z,4.30
2022-11-27T01:19:16.292Z,4.30
2022-11-27T01:21:45.855Z,4.30
2022-11-27T01:24:16.200Z,4.30
2022-11-27T01:26:46.763Z,4.30
2022-11-27T01:29:15.468Z,4.30
2022-11-27T01:31:44.209Z,4.30
2022-11-27T01:34:17.065Z,4.30
2022-11-27T01:36:46.308Z,5.90
2022-11-27T01:39:17.314Z,4.30
2022-11-27T01:41:49.038Z,4.20
2022-11-27T01:44:53.549Z,4.30
2022-11-27T01:47:41.212Z,4.30
2022-11-27T01:50:20.073Z,4.30
2022-11-27T01:52:52.632Z,4.90
2022-11-27T01:55:28.409Z,4.30
2022-11-27T01:58:02.053Z,4.20
2022-11-27T02:00:30.826Z,4.30
2022-11-27T02:03:00.339Z,4.30
2022-11-27T02:05:31.001Z,4.30
2022-11-27T02:08:05.249Z,4.30
2022-11-27T02:10:47.250Z,4.30
2022-11-27T02:13:24.832Z,4.30
2022-11-27T02:16:03.962Z,4.40
2022-11-27T02:18:42.599Z,4.40
2022-11-27T02:21:19.710Z,4.30
2022-11-27T02:24:25.303Z,4.40
2022-11-27T02:27:39.456Z,4.40
2022-11-27T02:30:11.209Z,4.40
2022-11-27T02:32:43.097Z,4.40
2022-11-27T02:35:17.890Z,4.40
2022-11-27T02:37:49.274Z,4.40
2022-11-27T02:40:31.614Z,4.50
2022-11-27T02:43:05.819Z,4.50
2022-11-27T02:45:40.221Z,4.70
2022-11-27T02:48:15.697Z,4.40
2022-11-27T02:50:46.690Z,4.70
2022-11-27T02:53:23.601Z,4.40
2022-11-27T02:55:54.877Z,4.40
2022-11-27T02:58:29.067Z,4.40
2022-11-27T03:01:00.946Z,4.50
2022-11-27T03:03:35.995Z,4.40
2022-11-27T03:06:09.263Z,4.50
2022-11-27T03:08:43.049Z,4.50
2022-11-27T03:11:14.923Z,4.50
2022-11-27T03:14:04.331Z,4.60
2022-11-27T03:16:40.902Z,4.60
2022-11-27T03:19:22.414Z,4.50
2022-11-27T03:21:59.677Z,4.40
2022-11-27T03:24:31.677Z,4.60
2022-11-27T03:27:00.807Z,4.50
2022-11-27T03:29:36.280Z,4.50
2022-11-27T03:32:12.160Z,4.60
2022-11-27T03:34:44.158Z,4.60
2022-11-27T03:37:16.770Z,4.60
2022-11-27T03:39:57.931Z,4.50
2022-11-27T03:42:33.909Z,5.20
2022-11-27T03:45:12.780Z,4.60
2022-11-27T03:47:55.294Z,4.60
2022-11-27T03:50:34.897Z,4.60
2022-11-27T03:53:17.633Z,4.60
2022-11-27T03:55:57.011Z,4.60
2022-11-27T03:58:40.500Z,4.50
2022-11-27T04:01:12.551Z,4.50
2022-11-27T04:03:43.185Z,5.20
2022-11-27T04:06:21.404Z,4.50
2022-11-27T04:09:04.286Z,4.60
2022-11-27T04:11:43.063Z,4.60
2022-11-27T04:14:11.949Z,4.60
2022-11-27T04:16:41.294Z,4.60
2022-11-27T04:19:21.578Z,3.60
2022-11-27T04:21:57.076Z,4.60
2022-11-27T04:24:33.080Z,4.60
2022-11-27T04:27:02.056Z,4.60
2022-11-27T04:29:34.282Z,4.60
2022-11-27T04:32:03.640Z,4.60
2022-11-27T04:34:34.431Z,4.50
2022-11-27T04:37:06.358Z,4.50
2022-11-27T04:39:34.952Z,4.60
2022-11-27T04:42:04.022Z,4.50
2022-11-27T04:44:35.952Z,6.60
2022-11-27T04:47:05.290Z,4.60
2022-11-27T04:49:35.418Z,4.70
2022-11-27T04:52:07.150Z,4.70
2022-11-27T04:54:38.242Z,4.80
2022-11-27T04:57:07.411Z,4.70
2022-11-27T04:59:36.760Z,4.70
2022-11-27T05:02:05.903Z,4.70
2022-11-27T05:04:36.208Z,4.60
2022-11-27T05:07:06.537Z,4.80
2022-11-27T05:09:37.857Z,4.70
2022-11-27T05:12:06.947Z,4.70
2022-11-27T05:14:35.879Z,4.70
2022-11-27T05:17:04.811Z,4.70
2022-11-27T05:19:41.064Z,4.70
2022-11-27T05:22:09.716Z,4.70
2022-11-27T05:24:40.091Z,4.80
2022-11-27T05:27:12.285Z,4.60
2022-11-27T05:29:41.385Z,4.60
2022-11-27T05:32:10.631Z,4.70
2022-11-27T05:34:41.085Z,4.60
2022-11-27T05:37:11.269Z,4.70
2022-11-27T05:39:42.694Z,4.80
2022-11-27T05:42:14.290Z,4.60
2022-11-27T05:44:43.627Z,4.60
2022-11-27T05:47:12.783Z,4.60
2022-11-27T05:49:42.770Z,4.70
2022-11-27T05:52:11.794Z,4.60
2022-11-27T05:54:43.850Z,4.80
2022-11-27T05:57:16.650Z,5.60
2022-11-27T05:59:48.508Z,4.60
2022-11-27T06:02:25.011Z,5.10
2022-11-27T06:04:58.740Z,4.60
2022-11-27T06:07:28.116Z,4.10
2022-11-27T06:09:58.625Z,4.60
2022-11-27T06:12:30.199Z,4.60
2022-11-27T06:14:58.982Z,4.80
2022-11-27T06:17:28.004Z,4.60
2022-11-27T06:19:57.997Z,4.60
2022-11-27T06:22:26.941Z,4.70
2022-11-27T06:24:55.604Z,4.70
2022-11-27T06:27:26.677Z,4.70
2022-11-27T06:29:55.354Z,4.80
2022-11-27T06:32:26.420Z,4.80
2022-11-27T06:34:55.072Z,4.80
2022-11-27T06:37:25.950Z,4.70
2022-11-27T06:39:55.114Z,4.80
2022-11-27T06:42:24.032Z,4.80
2022-11-27T06:44:52.746Z,4.70
2022-11-27T06:47:23.994Z,4.70
2022-11-27T06:49:53.124Z,4.70
2022-11-27T06:52:21.916Z,4.70
2022-11-27T06:54:52.071Z,4.70
2022-11-27T06:57:20.772Z,4.80
2022-11-27T06:59:49.856Z,4.80
2022-11-27T07:02:20.861Z,4.80
2022-11-27T07:04:49.833Z,4.80
2022-11-27T07:07:18.783Z,4.70
2022-11-27T07:09:48.081Z,4.80
2022-11-27T07:12:18.653Z,4.80
2022-11-27T07:14:51.688Z,4.80
2022-11-27T07:17:20.535Z,4.80
2022-11-27T07:19:49.359Z,4.90
2022-11-27T07:22:18.353Z,4.80
2022-11-27T07:24:47.281Z,4.80
2022-11-27T07:27:17.880Z,4.80
2022-11-27T07:29:46.993Z,4.90
2022-11-27T07:32:15.917Z,4.90
2022-11-27T07:34:44.685Z,4.90
2022-11-27T07:37:13.667Z,4.90
2022-11-27T07:40:01.544Z,4.90
2022-11-27T07:42:39.907Z,4.90
2022-11-27T07:45:10.375Z,4.90
2022-11-27T07:47:40.157Z,5.00
2022-11-27T07:50:10.347Z,5.00
2022-11-27T07:52:42.071Z,5.00
2022-11-27T07:55:12.012Z,5.10
2022-11-27T07:57:43.238Z,5.10
2022-11-27T08:00:13.021Z,5.10
2022-11-27T08:02:43.807Z,5.10
2022-11-27T08:05:13.302Z,5.10
2022-11-27T08:07:42.977Z,5.20
2022-11-27T08:10:12.118Z,5.30
2022-11-27T08:12:43.014Z,5.30
2022-11-27T08:15:13.003Z,5.30
2022-11-27T08:17:42.376Z,5.40
2022-11-27T08:20:11.763Z,5.30
2022-11-27T08:22:40.447Z,5.40
2022-11-27T08:25:10.938Z,5.40
2022-11-27T08:27:41.451Z,5.40
2022-11-27T08:30:11.412Z,5.40
2022-11-27T08:32:42.060Z,5.40
2022-11-27T08:35:13.376Z,5.40
2022-11-27T08:37:42.770Z,5.40
2022-11-27T08:40:13.479Z,5.50
2022-11-27T08:42:44.292Z,5.60
2022-11-27T08:45:13.549Z,5.60
2022-11-27T08:47:43.485Z,5.60
2022-11-27T08:50:12.654Z,5.50
2022-11-27T08:52:41.658Z,5.50
2022-11-27T08:55:11.039Z,5.50
2022-11-27T08:57:39.668Z,5.50
2022-11-27T09:00:11.525Z,5.50
2022-11-27T09:02:40.497Z,5.60
2022-11-27T09:05:10.152Z,5.60
2022-11-27T09:07:38.793Z,5.60
2022-11-27T09:10:08.835Z,5.60
2022-11-27T09:12:43.019Z,5.60
2022-11-27T09:15:14.625Z,5.70
2022-11-27T09:17:43.640Z,5.70
2022-11-27T09:20:14.373Z,5.60
2022-11-27T09:22:44.855Z,5.60
2022-11-27T09:25:13.456Z,5.60
2022-11-27T09:27:42.112Z,5.70
2022-11-27T09:30:13.823Z,5.70
2022-11-27T09:32:42.668Z,5.70
2022-11-27T09:35:11.576Z,5.80
2022-11-27T09:37:40.245Z,5.90
2022-11-27T09:40:14.892Z,5.90
2022-11-27T09:42:51.046Z,6.00
2022-11-27T09:45:23.200Z,6.10
2022-11-27T09:47:56.226Z,6.00
2022-11-27T09:50:29.933Z,6.00
2022-11-27T09:53:02.126Z,6.00
2022-11-27T09:55:38.165Z,6.00
2022-11-27T09:58:08.731Z,6.20
2022-11-27T10:00:38.839Z,6.10
2022-11-27T10:03:09.415Z,6.20
2022-11-27T10:05:43.882Z,6.20
2022-11-27T10:08:26.991Z,6.20
2022-11-27T10:11:08.702Z,6.20
2022-11-27T10:13:52.683Z,6.30
2022-11-27T10:16:30.643Z,6.30
2022-11-27T10:19:05.723Z,6.30
2022-11-27T10:21:43.691Z,6.30
2022-11-27T10:24:21.390Z,6.30
2022-11-27T10:26:53.975Z,6.20
2022-11-27T10:29:36.287Z,6.10
2022-11-27T10:32:46.981Z,6.10
2022-11-27T10:35:05.815Z,6.10
2022-11-27T10:37:39.797Z,6.00
2022-11-27T10:40:20.061Z,6.10
2022-11-27T10:42:56.487Z,6.20
2022-11-27T10:45:30.692Z,6.20
2022-11-27T10:48:01.243Z,6.10
2022-11-27T10:50:30.174Z,6.20
2022-11-27T10:53:04.231Z,6.20
2022-11-27T10:55:45.531Z,6.20
2022-11-27T10:58:20.765Z,6.20
2022-11-27T11:00:49.757Z,6.30
2022-11-27T11:03:19.923Z,6.20
2022-11-27T11:08:49.438Z,6.30
2022-11-27T11:11:27.555Z,6.30
2022-11-27T11:13:57.861Z,6.30
2022-11-27T11:16:34.886Z,6.20
2022-11-27T11:19:08.579Z,6.20
2022-11-27T11:21:41.229Z,6.30
2022-11-27T11:24:27.764Z,6.40
2022-11-27T11:26:59.258Z,6.40
2022-11-27T11:29:32.934Z,6.40
2022-11-27T11:32:10.015Z,6.50
2022-11-27T11:34:45.672Z,6.50
2022-11-27T11:37:24.142Z,6.50
2022-11-27T11:39:59.685Z,6.50
2022-11-27T11:42:30.521Z,6.50
2022-11-27T11:45:05.232Z,6.50
2022-11-27T11:47:36.942Z,6.40
2022-11-27T11:50:13.603Z,6.40
2022-11-27T11:52:55.971Z,6.40
2022-11-27T11:55:32.599Z,6.40
2022-11-27T11:58:20.420Z,6.60
2022-11-27T12:01:25.487Z,6.90
2022-11-27T12:03:57.613Z,7.00
2022-11-27T12:06:38.230Z,6.90
2022-11-27T12:09:26.282Z,6.90
2022-11-27T12:12:03.809Z,6.90
2022-11-27T12:14:44.259Z,6.90
2022-11-27T12:17:35.567Z,6.90
2022-11-27T12:20:17.903Z,6.80
2022-11-27T12:23:32.509Z,6.80
2022-11-27T12:26:11.045Z,6.90
2022-11-27T12:29:04.258Z,6.90
2022-11-27T12:31:52.298Z,7.00
2022-11-27T12:34:30.952Z,6.80
2022-11-27T12:37:14.916Z,6.80
2022-11-27T12:40:01.456Z,6.80
2022-11-27T12:42:36.202Z,6.90
2022-11-27T12:45:15.460Z,7.00
2022-11-27T12:47:48.663Z,7.10
2022-11-27T12:50:24.087Z,7.30
2022-11-27T12:53:00.939Z,7.10
2022-11-27T12:55:35.034Z,7.20
2022-11-27T12:58:08.177Z,7.10
2022-11-27T13:00:41.400Z,7.10
2022-11-27T13:03:19.705Z,7.10
2022-11-27T13:05:54.275Z,6.40
2022-11-27T13:08:28.299Z,7.00
2022-11-27T13:11:05.289Z,6.90
2022-11-27T13:13:39.083Z,7.00
2022-11-27T13:16:13.887Z,7.00
2022-11-27T13:18:46.585Z,6.90
2022-11-27T13:21:23.054Z,6.90
2022-11-27T13:23:52.376Z,6.80
2022-11-27T13:26:27.518Z,6.70
2022-11-27T13:29:00.467Z,6.70
2022-11-27T13:31:32.393Z,6.80
2022-11-27T13:34:04.449Z,6.80
2022-11-27T13:36:38.293Z,6.90
2022-11-27T13:39:08.237Z,6.80
2022-11-27T13:41:41.379Z,6.60
2022-11-27T13:44:28.441Z,6.70
2022-11-27T13:47:02.241Z,6.60
2022-11-27T13:49:36.300Z,6.60
2022-11-27T13:52:08.473Z,6.60
2022-11-27T13:54:37.637Z,6.50
2022-11-27T13:57:17.243Z,6.40
2022-11-27T13:59:57.617Z,6.50
2022-11-27T14:02:27.680Z,6.50
2022-11-27T14:04:57.155Z,6.40
2022-11-27T14:07:37.608Z,6.50
2022-11-27T14:10:15.086Z,6.60
2022-11-27T14:12:54.531Z,6.50
2022-11-27T14:15:26.111Z,6.40
2022-11-27T14:18:07.180Z,6.30
2022-11-27T14:20:39.061Z,6.30
2022-11-27T14:23:13.298Z,6.30
2022-11-27T14:25:42.405Z,6.20
2022-11-27T14:28:16.953Z,6.20
2022-11-27T14:30:49.288Z,6.30
2022-11-27T14:33:20.360Z,6.30
2022-11-27T14:35:50.899Z,6.40
2022-11-27T14:38:20.166Z,6.40
2022-11-27T14:40:50.243Z,6.40
2022-11-27T14:43:23.990Z,6.40
2022-11-27T14:45:55.636Z,6.40
2022-11-27T14:48:26.630Z,6.50
2022-11-27T14:50:56.963Z,6.50
2022-11-27T14:53:28.870Z,6.40
2022-11-27T14:55:59.613Z,6.30
2022-11-27T14:58:31.206Z,6.20
2022-11-27T15:01:02.238Z,6.10
2022-11-27T15:03:31.728Z,6.20
2022-11-27T15:06:03.173Z,6.00
2022-11-27T15:08:35.770Z,5.90
2022-11-27T15:11:06.871Z,5.90
2022-11-27T15:13:39.053Z,5.90
2022-11-27T15:16:16.554Z,5.90
2022-11-27T15:18:51.417Z,5.80
2022-11-27T15:21:25.111Z,5.80
2022-11-27T15:23:57.986Z,5.70
2022-11-27T15:26:47.940Z,5.70
2022-11-27T15:29:42.183Z,5.70
2022-11-27T15:32:23.508Z,5.70
2022-11-27T15:34:56.058Z,5.60
2022-11-27T15:37:34.094Z,5.50
2022-11-27T15:40:23.514Z,5.50
2022-11-27T15:42:52.444Z,5.60
2022-11-27T15:45:23.009Z,5.60
2022-11-27T15:47:59.904Z,5.60
2022-11-27T15:50:31.363Z,5.50
2022-11-27T15:53:01.087Z,5.50
2022-11-27T15:55:41.863Z,5.40
2022-11-27T15:58:12.820Z,5.50
2022-11-27T16:00:43.184Z,5.50
2022-11-27T16:03:13.402Z,5.40
2022-11-27T16:06:03.797Z,5.40
2022-11-27T16:08:35.526Z,5.40
2022-11-27T16:11:06.795Z,5.40
2022-11-27T16:13:36.114Z,5.40
2022-11-27T16:16:08.605Z,5.40
2022-11-27T16:18:39.856Z,5.40
2022-11-27T16:21:11.229Z,5.50
2022-11-27T16:23:48.424Z,5.60
2022-11-27T16:26:20.197Z,5.60
2022-11-27T16:28:49.485Z,5.50
2022-11-27T16:31:20.204Z,5.40
2022-11-27T16:33:51.523Z,5.40
2022-11-27T16:36:24.670Z,5.40
2022-11-27T16:38:59.506Z,5.30
2022-11-27T16:41:35.368Z,5.30
2022-11-27T16:44:15.114Z,6.30
2022-11-27T16:46:49.495Z,5.20
2022-11-27T16:49:18.418Z,5.20
2022-11-27T16:51:47.104Z,5.20
2022-11-27T16:54:16.317Z,5.20
2022-11-27T16:56:45.757Z,5.00
2022-11-27T16:59:17.461Z,5.10
2022-11-27T17:01:47.055Z,5.20
2022-11-27T17:04:49.614Z,5.20
2022-11-27T17:07:29.750Z,5.10
2022-11-27T17:10:01.349Z,5.20
2022-11-27T17:12:32.949Z,5.20
2022-11-27T17:15:04.687Z,5.30
2022-11-27T17:17:39.910Z,5.30
2022-11-27T17:20:14.616Z,5.30
2022-11-27T17:22:52.279Z,5.20
2022-11-27T17:25:31.855Z,5.20
2022-11-27T17:28:01.154Z,5.20
2022-11-27T17:30:32.883Z,5.10
2022-11-27T17:33:04.806Z,5.10
2022-11-27T17:35:37.711Z,5.10
2022-11-27T17:38:10.418Z,5.00
2022-11-27T17:40:39.439Z,5.00
2022-11-27T17:43:08.476Z,5.00
2022-11-27T17:45:41.125Z,5.00
2022-11-27T17:48:10.232Z,5.00
2022-11-27T17:50:41.277Z,4.90
2022-11-27T17:53:10.699Z,4.90
2022-11-27T17:55:41.282Z,4.80
2022-11-27T17:58:10.983Z,4.80
2022-11-27T18:00:42.572Z,4.80
2022-11-27T18:03:11.938Z,4.80
2022-11-27T18:05:48.835Z,4.80
2022-11-27T18:08:21.405Z,4.70
2022-11-27T18:10:51.423Z,4.70
2022-11-27T18:13:21.050Z,4.80
2022-11-27T18:15:50.853Z,4.90
2022-11-27T18:18:19.907Z,4.90
2022-11-27T18:20:51.465Z,4.80
2022-11-27T18:23:22.701Z,4.80
2022-11-27T18:25:52.010Z,4.80
2022-11-27T18:28:24.403Z,4.80
2022-11-27T18:30:57.156Z,4.80
2022-11-27T18:33:26.700Z,4.80
2022-11-27T18:36:00.265Z,4.80
2022-11-27T18:38:41.580Z,4.80
2022-11-27T18:41:16.328Z,4.80
2022-11-27T18:43:49.304Z,5.70
2022-11-27T18:46:19.111Z,4.80
2022-11-27T18:48:52.714Z,4.80
2022-11-27T18:51:25.462Z,4.80
2022-11-27T18:53:59.519Z,4.90
2022-11-27T18:56:31.303Z,4.80
2022-11-27T18:59:02.964Z,4.00
2022-11-27T19:01:39.667Z,4.80
2022-11-27T19:04:10.939Z,4.70
2022-11-27T19:06:48.108Z,4.70
2022-11-27T19:09:25.114Z,4.70
2022-11-27T19:11:57.427Z,5.70
2022-11-27T19:14:26.500Z,4.80
2022-11-27T19:16:55.191Z,4.70
2022-11-27T19:19:53.264Z,4.70
2022-11-27T19:22:19.974Z,4.70
2022-11-27T19:24:48.949Z,4.70
2022-11-27T19:27:17.751Z,4.70
2022-11-27T19:29:46.961Z,4.70
2022-11-27T19:32:15.861Z,4.60
2022-11-27T19:34:44.857Z,4.60
2022-11-27T19:37:13.596Z,4.70
2022-11-27T19:39:44.280Z,4.70
2022-11-27T19:42:13.669Z,4.70
2022-11-27T19:44:43.263Z,4.60
2022-11-27T19:47:12.458Z,4.70
2022-11-27T19:49:42.093Z,4.70
2022-11-27T19:52:10.826Z,4.70
2022-11-27T19:54:40.837Z,4.70
2022-11-27T19:57:12.700Z,4.60
2022-11-27T19:59:42.375Z,4.70
2022-11-27T20:02:14.274Z,4.60
2022-11-27T20:04:43.519Z,4.50
2022-11-27T20:07:12.525Z,4.50
2022-11-27T20:09:41.538Z,4.50
2022-11-27T20:12:12.134Z,4.40
2022-11-27T20:14:41.909Z,4.40
2022-11-27T20:17:10.825Z,4.40
2022-11-27T20:19:39.942Z,4.40
2022-11-27T20:22:10.359Z,4.40
2022-11-27T20:24:53.021Z,4.40
2022-11-27T20:27:31.064Z,4.40
2022-11-27T20:30:00.557Z,4.40
2022-11-27T20:32:29.593Z,4.40
2022-11-27T20:34:58.609Z,4.40
2022-11-27T20:37:28.086Z,4.40
2022-11-27T20:39:57.005Z,4.50
2022-11-27T20:42:26.075Z,4.30
2022-11-27T20:44:56.706Z,4.30
2022-11-27T20:47:25.609Z,4.30
2022-11-27T20:49:58.506Z,4.20
2022-11-27T20:52:27.510Z,4.20
2022-11-27T20:54:57.755Z,4.60
2022-11-27T20:57:27.789Z,4.10
2022-11-27T20:59:59.189Z,4.10
2022-11-27T21:02:27.914Z,4.10
2022-11-27T21:04:56.903Z,4.00
2022-11-27T21:07:25.991Z,4.10
2022-11-27T21:09:55.698Z,4.00
2022-11-27T21:12:24.696Z,4.00
2022-11-27T21:14:53.386Z,3.90
2022-11-27T21:17:23.795Z,3.90
2022-11-27T21:19:53.054Z,3.90
2022-11-27T21:22:21.584Z,4.00
2022-11-27T21:24:51.170Z,3.90
2022-11-27T21:27:19.740Z,3.90
2022-11-27T21:29:48.407Z,4.00
2022-11-27T21:32:22.390Z,3.90
2022-11-27T21:34:52.506Z,3.80
2022-11-27T21:37:21.045Z,3.70
2022-11-27T21:39:49.558Z,3.50
2022-11-27T21:42:18.530Z,3.50
2022-11-27T21:44:47.461Z,3.40
2022-11-27T21:47:16.138Z,3.30
2022-11-27T21:49:44.866Z,3.00
2022-11-27T21:52:16.173Z,3.00
2022-11-27T21:54:44.991Z,2.80
2022-11-27T21:57:15.144Z,2.70
2022-11-27T21:59:43.957Z,2.70
2022-11-27T22:02:13.198Z,2.60
2022-11-27T22:04:42.251Z,2.50
2022-11-27T22:07:11.561Z,2.30
2022-11-27T22:09:41.676Z,2.10
2022-11-27T22:12:10.170Z,2.00
2022-11-27T22:14:38.861Z,2.00
2022-11-27T22:17:10.425Z,1.90
2022-11-27T22:19:42.374Z,1.90
2022-11-27T22:22:11.139Z,1.90
2022-11-27T22:24:41.580Z,1.90
2022-11-27T22:27:10.393Z,1.70
2022-11-27T22:29:39.286Z,1.70
2022-11-27T22:32:08.273Z,1.50
2022-11-27T22:34:37.657Z,1.40
2022-11-27T22:37:06.772Z,1.40
2022-11-27T22:39:36.128Z,1.30
2022-11-27T22:42:06.335Z,1.20
2022-11-27T22:44:35.030Z,1.10
2022-11-27T22:47:03.834Z,1.00
2022-11-27T22:49:32.566Z,0.90
2022-11-27T22:52:01.386Z,0.90
2022-11-27T22:54:30.166Z,0.90
2022-11-27T22:56:59.489Z,0.90
2022-11-27T22:59:32.797Z,0.90
2022-11-27T23:02:03.699Z,0.80
2022-11-27T23:04:32.590Z,0.70
2022-11-27T23:07:01.450Z,0.60
2022-11-27T23:09:30.808Z,1.10
2022-11-27T23:12:00.179Z,0.60
2022-11-27T23:14:33.432Z,0.50
2022-11-27T23:17:02.197Z,0.50
2022-11-27T23:19:30.888Z,0.40
2022-11-27T23:21:59.947Z,0.40
2022-11-27T23:24:28.578Z,0.30
2022-11-27T23:26:57.258Z,0.30
2022-11-27T23:29:25.833Z,0.50
2022-11-27T23:31:55.790Z,0.40
2022-11-27T23:34:24.670Z,0.40
2022-11-27T23:36:53.295Z,0.40
2022-11-27T23:39:21.963Z,0.50
2022-11-27T23:41:50.894Z,0.50
2022-11-27T23:44:20.330Z,0.50
2022-11-27T23:46:49.386Z,0.60
2022-11-27T23:49:20.130Z,0.60
2022-11-27T23:51:49.001Z,0.60
2022-11-27T23:54:17.602Z,0.60
2022-11-27T23:56:46.618Z,0.70
2022-11-27T23:59:15.481Z,0.70
